sensor_id;sensor_type;location;lat;lon;timestamp;P1;durP1;ratioP1;P2;durP2;ratioP2
4011;SDS011;2020;48.682;9.024;2022-07-05T00:00:04;4.63;;;3.43;;
4011;SDS011;2020;48.682;9.024;2022-07-05T00:02:30;3.40;;;3.30;;
4011;SDS011;2020;48.682;9.024;2022-07-05T00:04:56;3.27;;;3.17;;
4011;SDS011;2020;48.682;9.024;2022-07-05T00:07:21;2.87;;;2.73;;
4011;SDS011;2020;48.682;9.024;2022-07-05T00:09:51;3.03;;;2.90;;
4011;SDS011;2020;48.682;9.024;2022-07-05T00:12:19;2.60;;;2.50;;
4011;SDS011;2020;48.682;9.024;2022-07-05T00:14:47;2.70;;;2.60;;
4011;SDS011;2020;48.682;9.024;2022-07-05T00:17:14;4.07;;;2.83;;
4011;SDS011;2020;48.682;9.024;2022-07-05T00:19:39;3.50;;;3.40;;
4011;SDS011;2020;48.682;9.024;2022-07-05T00:22:05;2.60;;;2.60;;
4011;SDS011;2020;48.682;9.024;2022-07-05T00:24:31;3.20;;;3.00;;
4011;SDS011;2020;48.682;9.024;2022-07-05T00:26:56;5.03;;;3.00;;
4011;SDS011;2020;48.682;9.024;2022-07-05T00:29:21;3.10;;;2.90;;
4011;SDS011;2020;48.682;9.024;2022-07-05T00:31:47;3.40;;;3.23;;
4011;SDS011;2020;48.682;9.024;2022-07-05T00:34:12;3.27;;;3.27;;
4011;SDS011;2020;48.682;9.024;2022-07-05T00:36:38;3.20;;;2.90;;
4011;SDS011;2020;48.682;9.024;2022-07-05T00:39:04;3.27;;;3.27;;
4011;SDS011;2020;48.682;9.024;2022-07-05T00:41:30;3.37;;;3.07;;
4011;SDS011;2020;48.682;9.024;2022-07-05T00:43:57;3.10;;;2.83;;
4011;SDS011;2020;48.682;9.024;2022-07-05T00:46:24;3.20;;;3.10;;
4011;SDS011;2020;48.682;9.024;2022-07-05T00:48:50;3.83;;;3.50;;
4011;SDS011;2020;48.682;9.024;2022-07-05T00:51:16;3.17;;;3.07;;
4011;SDS011;2020;48.682;9.024;2022-07-05T00:53:42;3.83;;;3.63;;
4011;SDS011;2020;48.682;9.024;2022-07-05T00:56:08;3.40;;;3.30;;
4011;SDS011;2020;48.682;9.024;2022-07-05T00:58:34;3.30;;;3.20;;
4011;SDS011;2020;48.682;9.024;2022-07-05T01:01:00;3.73;;;3.53;;
4011;SDS011;2020;48.682;9.024;2022-07-05T01:03:28;3.20;;;3.10;;
4011;SDS011;2020;48.682;9.024;2022-07-05T01:05:54;3.13;;;3.03;;
4011;SDS011;2020;48.682;9.024;2022-07-05T01:08:20;4.40;;;3.33;;
4011;SDS011;2020;48.682;9.024;2022-07-05T01:10:47;3.70;;;3.50;;
4011;SDS011;2020;48.682;9.024;2022-07-05T01:13:13;3.30;;;3.20;;
4011;SDS011;2020;48.682;9.024;2022-07-05T01:15:38;3.57;;;3.43;;
4011;SDS011;2020;48.682;9.024;2022-07-05T01:18:05;3.10;;;3.00;;
4011;SDS011;2020;48.682;9.024;2022-07-05T01:20:31;3.50;;;3.40;;
4011;SDS011;2020;48.682;9.024;2022-07-05T01:22:57;3.60;;;3.47;;
4011;SDS011;2020;48.682;9.024;2022-07-05T01:25:25;4.10;;;4.00;;
4011;SDS011;2020;48.682;9.024;2022-07-05T01:27:52;3.40;;;3.40;;
4011;SDS011;2020;48.682;9.024;2022-07-05T01:30:18;3.57;;;3.47;;
4011;SDS011;2020;48.682;9.024;2022-07-05T01:32:43;3.80;;;3.70;;
4011;SDS011;2020;48.682;9.024;2022-07-05T01:35:09;4.20;;;4.00;;
4011;SDS011;2020;48.682;9.024;2022-07-05T01:37:36;3.37;;;3.27;;
4011;SDS011;2020;48.682;9.024;2022-07-05T01:40:02;3.20;;;3.10;;
4011;SDS011;2020;48.682;9.024;2022-07-05T01:42:28;3.53;;;3.20;;
4011;SDS011;2020;48.682;9.024;2022-07-05T01:44:53;3.57;;;3.47;;
4011;SDS011;2020;48.682;9.024;2022-07-05T01:47:19;3.43;;;3.27;;
4011;SDS011;2020;48.682;9.024;2022-07-05T01:49:46;3.60;;;3.50;;
4011;SDS011;2020;48.682;9.024;2022-07-05T01:52:12;3.40;;;3.30;;
4011;SDS011;2020;48.682;9.024;2022-07-05T01:54:39;3.07;;;2.97;;
4011;SDS011;2020;48.682;9.024;2022-07-05T01:57:05;3.40;;;3.30;;
4011;SDS011;2020;48.682;9.024;2022-07-05T01:59:32;3.60;;;3.40;;
4011;SDS011;2020;48.682;9.024;2022-07-05T02:01:59;3.77;;;3.67;;
4011;SDS011;2020;48.682;9.024;2022-07-05T02:04:24;3.77;;;3.57;;
4011;SDS011;2020;48.682;9.024;2022-07-05T02:06:51;4.90;;;3.87;;
4011;SDS011;2020;48.682;9.024;2022-07-05T02:09:16;4.13;;;3.93;;
4011;SDS011;2020;48.682;9.024;2022-07-05T02:11:41;3.80;;;3.60;;
4011;SDS011;2020;48.682;9.024;2022-07-05T02:14:06;3.47;;;3.23;;
4011;SDS011;2020;48.682;9.024;2022-07-05T02:16:32;3.40;;;3.40;;
4011;SDS011;2020;48.682;9.024;2022-07-05T02:18:57;3.70;;;3.60;;
4011;SDS011;2020;48.682;9.024;2022-07-05T02:21:22;4.50;;;3.57;;
4011;SDS011;2020;48.682;9.024;2022-07-05T02:23:48;3.50;;;3.40;;
4011;SDS011;2020;48.682;9.024;2022-07-05T02:26:13;3.03;;;2.90;;
4011;SDS011;2020;48.682;9.024;2022-07-05T02:28:39;3.30;;;3.20;;
4011;SDS011;2020;48.682;9.024;2022-07-05T02:31:04;3.53;;;3.43;;
4011;SDS011;2020;48.682;9.024;2022-07-05T02:33:30;4.00;;;3.77;;
4011;SDS011;2020;48.682;9.024;2022-07-05T02:35:55;3.70;;;3.60;;
4011;SDS011;2020;48.682;9.024;2022-07-05T02:38:20;3.63;;;3.53;;
4011;SDS011;2020;48.682;9.024;2022-07-05T02:40:45;3.20;;;3.20;;
4011;SDS011;2020;48.682;9.024;2022-07-05T02:43:11;3.87;;;3.67;;
4011;SDS011;2020;48.682;9.024;2022-07-05T02:45:36;4.20;;;4.00;;
4011;SDS011;2020;48.682;9.024;2022-07-05T02:48:01;3.10;;;2.90;;
4011;SDS011;2020;48.682;9.024;2022-07-05T02:50:27;3.07;;;2.97;;
4011;SDS011;2020;48.682;9.024;2022-07-05T02:52:52;3.50;;;3.40;;
4011;SDS011;2020;48.682;9.024;2022-07-05T02:55:18;6.00;;;4.13;;
4011;SDS011;2020;48.682;9.024;2022-07-05T02:57:43;4.00;;;3.90;;
4011;SDS011;2020;48.682;9.024;2022-07-05T03:00:08;3.70;;;3.60;;
4011;SDS011;2020;48.682;9.024;2022-07-05T03:02:34;4.00;;;3.90;;
4011;SDS011;2020;48.682;9.024;2022-07-05T03:05:00;3.27;;;3.17;;
4011;SDS011;2020;48.682;9.024;2022-07-05T03:07:25;3.77;;;3.60;;
4011;SDS011;2020;48.682;9.024;2022-07-05T03:09:50;4.40;;;4.20;;
4011;SDS011;2020;48.682;9.024;2022-07-05T03:12:16;4.70;;;4.40;;
4011;SDS011;2020;48.682;9.024;2022-07-05T03:14:41;3.87;;;3.67;;
4011;SDS011;2020;48.682;9.024;2022-07-05T03:17:06;4.30;;;4.07;;
4011;SDS011;2020;48.682;9.024;2022-07-05T03:19:31;3.77;;;3.67;;
4011;SDS011;2020;48.682;9.024;2022-07-05T03:21:57;4.33;;;4.03;;
4011;SDS011;2020;48.682;9.024;2022-07-05T03:24:22;4.23;;;4.13;;
4011;SDS011;2020;48.682;9.024;2022-07-05T03:26:47;4.97;;;4.00;;
4011;SDS011;2020;48.682;9.024;2022-07-05T03:29:13;7.07;;;3.53;;
4011;SDS011;2020;48.682;9.024;2022-07-05T03:31:38;4.17;;;4.07;;
4011;SDS011;2020;48.682;9.024;2022-07-05T03:34:03;4.83;;;4.73;;
4011;SDS011;2020;48.682;9.024;2022-07-05T03:36:29;3.47;;;3.37;;
4011;SDS011;2020;48.682;9.024;2022-07-05T03:38:54;3.50;;;3.40;;
4011;SDS011;2020;48.682;9.024;2022-07-05T03:41:19;3.90;;;3.70;;
4011;SDS011;2020;48.682;9.024;2022-07-05T03:43:44;3.43;;;3.33;;
4011;SDS011;2020;48.682;9.024;2022-07-05T03:46:10;4.43;;;4.13;;
4011;SDS011;2020;48.682;9.024;2022-07-05T03:48:35;3.70;;;3.50;;
4011;SDS011;2020;48.682;9.024;2022-07-05T03:51:00;3.67;;;3.60;;
4011;SDS011;2020;48.682;9.024;2022-07-05T03:53:25;4.30;;;4.10;;
4011;SDS011;2020;48.682;9.024;2022-07-05T03:55:51;3.80;;;3.70;;
4011;SDS011;2020;48.682;9.024;2022-07-05T03:58:16;7.00;;;4.40;;
4011;SDS011;2020;48.682;9.024;2022-07-05T04:00:42;4.07;;;3.80;;
4011;SDS011;2020;48.682;9.024;2022-07-05T04:03:07;4.40;;;4.20;;
4011;SDS011;2020;48.682;9.024;2022-07-05T04:05:32;3.63;;;3.53;;
4011;SDS011;2020;48.682;9.024;2022-07-05T04:07:57;4.07;;;3.97;;
4011;SDS011;2020;48.682;9.024;2022-07-05T04:10:23;4.60;;;4.40;;
4011;SDS011;2020;48.682;9.024;2022-07-05T04:12:48;3.83;;;3.73;;
4011;SDS011;2020;48.682;9.024;2022-07-05T04:15:14;3.83;;;3.73;;
4011;SDS011;2020;48.682;9.024;2022-07-05T04:18:12;4.20;;;4.10;;
4011;SDS011;2020;48.682;9.024;2022-07-05T04:20:31;3.93;;;3.63;;
4011;SDS011;2020;48.682;9.024;2022-07-05T04:22:56;4.93;;;4.53;;
4011;SDS011;2020;48.682;9.024;2022-07-05T04:25:22;3.63;;;3.43;;
4011;SDS011;2020;48.682;9.024;2022-07-05T04:27:51;6.20;;;3.87;;
4011;SDS011;2020;48.682;9.024;2022-07-05T04:30:17;3.90;;;3.80;;
4011;SDS011;2020;48.682;9.024;2022-07-05T04:32:44;3.77;;;3.57;;
4011;SDS011;2020;48.682;9.024;2022-07-05T04:35:10;4.43;;;4.00;;
4011;SDS011;2020;48.682;9.024;2022-07-05T04:37:36;4.13;;;3.93;;
4011;SDS011;2020;48.682;9.024;2022-07-05T04:40:05;4.20;;;3.90;;
4011;SDS011;2020;48.682;9.024;2022-07-05T04:42:32;4.40;;;4.30;;
4011;SDS011;2020;48.682;9.024;2022-07-05T04:44:57;4.73;;;4.53;;
4011;SDS011;2020;48.682;9.024;2022-07-05T04:47:23;3.77;;;3.67;;
4011;SDS011;2020;48.682;9.024;2022-07-05T04:49:50;4.63;;;4.50;;
4011;SDS011;2020;48.682;9.024;2022-07-05T04:52:15;4.87;;;4.53;;
4011;SDS011;2020;48.682;9.024;2022-07-05T04:54:41;4.20;;;4.00;;
4011;SDS011;2020;48.682;9.024;2022-07-05T04:57:06;3.93;;;3.83;;
4011;SDS011;2020;48.682;9.024;2022-07-05T04:59:31;3.60;;;3.50;;
4011;SDS011;2020;48.682;9.024;2022-07-05T05:01:56;3.90;;;3.80;;
4011;SDS011;2020;48.682;9.024;2022-07-05T05:04:22;4.67;;;4.37;;
4011;SDS011;2020;48.682;9.024;2022-07-05T05:06:47;3.87;;;3.77;;
4011;SDS011;2020;48.682;9.024;2022-07-05T05:09:12;4.17;;;4.00;;
4011;SDS011;2020;48.682;9.024;2022-07-05T05:11:38;4.57;;;4.33;;
4011;SDS011;2020;48.682;9.024;2022-07-05T05:14:03;4.70;;;4.50;;
4011;SDS011;2020;48.682;9.024;2022-07-05T05:16:28;6.63;;;3.87;;
4011;SDS011;2020;48.682;9.024;2022-07-05T05:18:53;5.20;;;4.83;;
4011;SDS011;2020;48.682;9.024;2022-07-05T05:21:19;4.03;;;3.93;;
4011;SDS011;2020;48.682;9.024;2022-07-05T05:23:44;4.93;;;3.77;;
4011;SDS011;2020;48.682;9.024;2022-07-05T05:26:09;4.43;;;4.13;;
4011;SDS011;2020;48.682;9.024;2022-07-05T05:28:35;6.47;;;3.47;;
4011;SDS011;2020;48.682;9.024;2022-07-05T05:31:00;3.57;;;3.37;;
4011;SDS011;2020;48.682;9.024;2022-07-05T05:33:25;4.23;;;3.07;;
4011;SDS011;2020;48.682;9.024;2022-07-05T05:35:51;3.63;;;3.53;;
4011;SDS011;2020;48.682;9.024;2022-07-05T05:38:16;3.03;;;2.93;;
4011;SDS011;2020;48.682;9.024;2022-07-05T05:40:41;3.63;;;3.53;;
4011;SDS011;2020;48.682;9.024;2022-07-05T05:43:09;3.70;;;3.60;;
4011;SDS011;2020;48.682;9.024;2022-07-05T05:45:34;3.80;;;3.70;;
4011;SDS011;2020;48.682;9.024;2022-07-05T05:47:59;4.00;;;3.80;;
4011;SDS011;2020;48.682;9.024;2022-07-05T05:50:26;3.00;;;2.90;;
4011;SDS011;2020;48.682;9.024;2022-07-05T05:52:55;3.70;;;3.40;;
4011;SDS011;2020;48.682;9.024;2022-07-05T05:55:21;4.97;;;3.30;;
4011;SDS011;2020;48.682;9.024;2022-07-05T05:57:48;5.57;;;3.80;;
4011;SDS011;2020;48.682;9.024;2022-07-05T06:00:13;8.37;;;4.00;;
4011;SDS011;2020;48.682;9.024;2022-07-05T06:02:43;6.20;;;2.60;;
4011;SDS011;2020;48.682;9.024;2022-07-05T06:05:09;2.87;;;2.77;;
4011;SDS011;2020;48.682;9.024;2022-07-05T06:10:17;2.90;;;2.80;;
4011;SDS011;2020;48.682;9.024;2022-07-05T06:12:51;2.50;;;2.50;;
4011;SDS011;2020;48.682;9.024;2022-07-05T06:15:18;2.50;;;2.30;;
4011;SDS011;2020;48.682;9.024;2022-07-05T06:17:44;2.20;;;2.20;;
4011;SDS011;2020;48.682;9.024;2022-07-05T06:20:10;2.50;;;2.33;;
4011;SDS011;2020;48.682;9.024;2022-07-05T06:22:37;2.80;;;2.60;;
4011;SDS011;2020;48.682;9.024;2022-07-05T06:25:02;2.37;;;2.27;;
4011;SDS011;2020;48.682;9.024;2022-07-05T06:27:28;1.80;;;1.70;;
4011;SDS011;2020;48.682;9.024;2022-07-05T06:29:54;1.73;;;1.63;;
4011;SDS011;2020;48.682;9.024;2022-07-05T06:32:19;1.87;;;1.60;;
4011;SDS011;2020;48.682;9.024;2022-07-05T06:34:44;1.87;;;1.50;;
4011;SDS011;2020;48.682;9.024;2022-07-05T06:37:09;1.50;;;1.50;;
4011;SDS011;2020;48.682;9.024;2022-07-05T06:39:34;2.40;;;2.20;;
4011;SDS011;2020;48.682;9.024;2022-07-05T06:42:00;2.20;;;2.20;;
4011;SDS011;2020;48.682;9.024;2022-07-05T06:44:25;4.00;;;1.90;;
4011;SDS011;2020;48.682;9.024;2022-07-05T06:46:51;1.70;;;1.60;;
4011;SDS011;2020;48.682;9.024;2022-07-05T06:49:16;1.87;;;1.63;;
4011;SDS011;2020;48.682;9.024;2022-07-05T06:51:41;1.60;;;1.60;;
4011;SDS011;2020;48.682;9.024;2022-07-05T06:54:06;2.00;;;1.90;;
4011;SDS011;2020;48.682;9.024;2022-07-05T06:56:32;1.40;;;1.40;;
4011;SDS011;2020;48.682;9.024;2022-07-05T06:58:57;1.50;;;1.50;;
4011;SDS011;2020;48.682;9.024;2022-07-05T07:01:22;1.67;;;1.50;;
4011;SDS011;2020;48.682;9.024;2022-07-05T07:03:47;2.07;;;2.07;;
4011;SDS011;2020;48.682;9.024;2022-07-05T07:06:13;2.10;;;1.50;;
4011;SDS011;2020;48.682;9.024;2022-07-05T07:08:38;2.20;;;1.53;;
4011;SDS011;2020;48.682;9.024;2022-07-05T07:11:22;1.70;;;1.60;;
4011;SDS011;2020;48.682;9.024;2022-07-05T07:13:47;1.80;;;1.70;;
4011;SDS011;2020;48.682;9.024;2022-07-05T07:16:13;1.30;;;1.30;;
4011;SDS011;2020;48.682;9.024;2022-07-05T07:18:38;2.10;;;1.70;;
4011;SDS011;2020;48.682;9.024;2022-07-05T07:21:04;1.93;;;1.70;;
4011;SDS011;2020;48.682;9.024;2022-07-05T07:23:29;1.90;;;1.90;;
4011;SDS011;2020;48.682;9.024;2022-07-05T07:25:54;3.47;;;1.30;;
4011;SDS011;2020;48.682;9.024;2022-07-05T07:28:19;1.47;;;1.37;;
4011;SDS011;2020;48.682;9.024;2022-07-05T07:30:45;2.00;;;1.57;;
4011;SDS011;2020;48.682;9.024;2022-07-05T07:33:10;2.73;;;1.70;;
4011;SDS011;2020;48.682;9.024;2022-07-05T07:35:35;1.27;;;1.17;;
4011;SDS011;2020;48.682;9.024;2022-07-05T07:38:00;1.33;;;1.23;;
4011;SDS011;2020;48.682;9.024;2022-07-05T07:40:26;1.27;;;1.27;;
4011;SDS011;2020;48.682;9.024;2022-07-05T07:42:51;1.40;;;1.40;;
4011;SDS011;2020;48.682;9.024;2022-07-05T07:45:16;1.30;;;1.20;;
4011;SDS011;2020;48.682;9.024;2022-07-05T07:47:41;1.47;;;1.30;;
4011;SDS011;2020;48.682;9.024;2022-07-05T07:50:07;1.70;;;1.60;;
4011;SDS011;2020;48.682;9.024;2022-07-05T07:52:33;3.37;;;1.50;;
4011;SDS011;2020;48.682;9.024;2022-07-05T07:54:59;1.30;;;1.20;;
4011;SDS011;2020;48.682;9.024;2022-07-05T07:57:25;1.23;;;1.13;;
4011;SDS011;2020;48.682;9.024;2022-07-05T07:59:51;1.40;;;1.30;;
4011;SDS011;2020;48.682;9.024;2022-07-05T08:02:16;5.80;;;1.77;;
4011;SDS011;2020;48.682;9.024;2022-07-05T08:04:43;1.30;;;1.30;;
4011;SDS011;2020;48.682;9.024;2022-07-05T08:07:08;2.30;;;1.20;;
4011;SDS011;2020;48.682;9.024;2022-07-05T08:09:33;1.70;;;1.60;;
4011;SDS011;2020;48.682;9.024;2022-07-05T08:11:59;1.73;;;1.50;;
4011;SDS011;2020;48.682;9.024;2022-07-05T08:14:24;1.43;;;1.40;;
4011;SDS011;2020;48.682;9.024;2022-07-05T08:16:49;1.23;;;1.23;;
4011;SDS011;2020;48.682;9.024;2022-07-05T08:19:15;1.47;;;1.37;;
4011;SDS011;2020;48.682;9.024;2022-07-05T08:22:00;4.30;;;1.53;;
4011;SDS011;2020;48.682;9.024;2022-07-05T08:24:26;1.10;;;1.10;;
4011;SDS011;2020;48.682;9.024;2022-07-05T08:26:52;2.70;;;1.00;;
4011;SDS011;2020;48.682;9.024;2022-07-05T08:29:17;1.00;;;1.00;;
4011;SDS011;2020;48.682;9.024;2022-07-05T08:31:43;2.30;;;1.27;;
4011;SDS011;2020;48.682;9.024;2022-07-05T08:34:11;2.13;;;1.17;;
4011;SDS011;2020;48.682;9.024;2022-07-05T08:36:37;1.53;;;1.43;;
4011;SDS011;2020;48.682;9.024;2022-07-05T08:39:04;3.90;;;1.03;;
4011;SDS011;2020;48.682;9.024;2022-07-05T08:41:30;1.23;;;1.23;;
4011;SDS011;2020;48.682;9.024;2022-07-05T08:43:58;1.23;;;1.03;;
4011;SDS011;2020;48.682;9.024;2022-07-05T08:46:27;1.20;;;1.20;;
4011;SDS011;2020;48.682;9.024;2022-07-05T08:48:55;4.97;;;1.30;;
4011;SDS011;2020;48.682;9.024;2022-07-05T08:51:24;1.30;;;1.00;;
4011;SDS011;2020;48.682;9.024;2022-07-05T08:53:52;1.30;;;1.30;;
4011;SDS011;2020;48.682;9.024;2022-07-05T08:56:18;1.40;;;1.40;;
4011;SDS011;2020;48.682;9.024;2022-07-05T08:58:44;1.83;;;1.40;;
4011;SDS011;2020;48.682;9.024;2022-07-05T09:01:11;1.30;;;1.30;;
4011;SDS011;2020;48.682;9.024;2022-07-05T09:03:39;1.17;;;1.17;;
4011;SDS011;2020;48.682;9.024;2022-07-05T09:06:17;0.90;;;0.90;;
4011;SDS011;2020;48.682;9.024;2022-07-05T09:08:44;1.23;;;1.23;;
4011;SDS011;2020;48.682;9.024;2022-07-05T09:11:12;2.20;;;0.90;;
4011;SDS011;2020;48.682;9.024;2022-07-05T09:13:39;1.70;;;1.07;;
4011;SDS011;2020;48.682;9.024;2022-07-05T09:16:06;1.00;;;1.00;;
4011;SDS011;2020;48.682;9.024;2022-07-05T09:18:41;1.83;;;1.10;;
4011;SDS011;2020;48.682;9.024;2022-07-05T09:21:22;1.23;;;1.23;;
4011;SDS011;2020;48.682;9.024;2022-07-05T09:23:56;1.30;;;1.30;;
4011;SDS011;2020;48.682;9.024;2022-07-05T09:26:39;1.10;;;1.10;;
4011;SDS011;2020;48.682;9.024;2022-07-05T09:29:15;1.00;;;1.00;;
4011;SDS011;2020;48.682;9.024;2022-07-05T09:31:43;15.00;;;1.83;;
4011;SDS011;2020;48.682;9.024;2022-07-05T09:34:13;4.77;;;1.70;;
4011;SDS011;2020;48.682;9.024;2022-07-05T09:44:48;2.10;;;1.40;;
4011;SDS011;2020;48.682;9.024;2022-07-05T09:47:23;1.10;;;1.10;;
4011;SDS011;2020;48.682;9.024;2022-07-05T09:49:51;0.90;;;0.90;;
4011;SDS011;2020;48.682;9.024;2022-07-05T09:52:27;3.03;;;0.90;;
4011;SDS011;2020;48.682;9.024;2022-07-05T09:55:03;1.27;;;1.17;;
4011;SDS011;2020;48.682;9.024;2022-07-05T09:57:32;1.67;;;1.20;;
4011;SDS011;2020;48.682;9.024;2022-07-05T10:00:00;1.40;;;1.30;;
4011;SDS011;2020;48.682;9.024;2022-07-05T10:02:40;1.77;;;1.20;;
4011;SDS011;2020;48.682;9.024;2022-07-05T10:05:13;0.97;;;0.97;;
4011;SDS011;2020;48.682;9.024;2022-07-05T10:07:40;0.97;;;0.97;;
4011;SDS011;2020;48.682;9.024;2022-07-05T10:10:28;0.87;;;0.87;;
4011;SDS011;2020;48.682;9.024;2022-07-05T10:12:54;3.67;;;1.00;;
4011;SDS011;2020;48.682;9.024;2022-07-05T10:15:28;1.33;;;1.10;;
4011;SDS011;2020;48.682;9.024;2022-07-05T10:20:33;2.00;;;1.00;;
4011;SDS011;2020;48.682;9.024;2022-07-05T10:23:07;1.03;;;1.03;;
4011;SDS011;2020;48.682;9.024;2022-07-05T10:25:36;1.37;;;1.07;;
4011;SDS011;2020;48.682;9.024;2022-07-05T10:28:03;1.20;;;1.20;;
4011;SDS011;2020;48.682;9.024;2022-07-05T10:30:30;1.27;;;1.10;;
4011;SDS011;2020;48.682;9.024;2022-07-05T10:32:56;1.10;;;1.10;;
4011;SDS011;2020;48.682;9.024;2022-07-05T10:35:22;1.20;;;1.10;;
4011;SDS011;2020;48.682;9.024;2022-07-05T10:37:48;1.67;;;1.20;;
4011;SDS011;2020;48.682;9.024;2022-07-05T10:40:14;1.33;;;1.00;;
4011;SDS011;2020;48.682;9.024;2022-07-05T10:42:41;0.70;;;0.70;;
4011;SDS011;2020;48.682;9.024;2022-07-05T10:50:54;2.43;;;0.80;;
4011;SDS011;2020;48.682;9.024;2022-07-05T10:55:57;1.57;;;0.90;;
4011;SDS011;2020;48.682;9.024;2022-07-05T10:58:35;1.20;;;1.20;;
4011;SDS011;2020;48.682;9.024;2022-07-05T11:06:25;1.03;;;1.03;;
4011;SDS011;2020;48.682;9.024;2022-07-05T11:11:23;1.57;;;1.23;;
4011;SDS011;2020;48.682;9.024;2022-07-05T11:13:49;1.33;;;1.20;;
4011;SDS011;2020;48.682;9.024;2022-07-05T11:16:28;1.20;;;1.20;;
4011;SDS011;2020;48.682;9.024;2022-07-05T11:19:05;1.07;;;1.07;;
4011;SDS011;2020;48.682;9.024;2022-07-05T11:21:32;1.67;;;1.27;;
4011;SDS011;2020;48.682;9.024;2022-07-05T11:26:47;1.30;;;1.30;;
4011;SDS011;2020;48.682;9.024;2022-07-05T11:29:39;2.77;;;1.10;;
4011;SDS011;2020;48.682;9.024;2022-07-05T11:32:04;1.43;;;1.40;;
4011;SDS011;2020;48.682;9.024;2022-07-05T11:34:34;1.57;;;1.40;;
4011;SDS011;2020;48.682;9.024;2022-07-05T11:37:33;1.23;;;1.10;;
4011;SDS011;2020;48.682;9.024;2022-07-05T11:42:30;7.47;;;1.77;;
4011;SDS011;2020;48.682;9.024;2022-07-05T11:44:55;1.00;;;1.00;;
4011;SDS011;2020;48.682;9.024;2022-07-05T11:47:22;1.27;;;1.17;;
4011;SDS011;2020;48.682;9.024;2022-07-05T11:49:55;3.37;;;1.40;;
4011;SDS011;2020;48.682;9.024;2022-07-05T11:52:27;1.13;;;1.03;;
4011;SDS011;2020;48.682;9.024;2022-07-05T11:54:54;1.40;;;1.30;;
4011;SDS011;2020;48.682;9.024;2022-07-05T11:57:20;1.23;;;1.23;;
4011;SDS011;2020;48.682;9.024;2022-07-05T11:59:46;1.27;;;1.17;;
4011;SDS011;2020;48.682;9.024;2022-07-05T12:02:12;1.63;;;1.10;;
4011;SDS011;2020;48.682;9.024;2022-07-05T12:04:38;1.40;;;1.30;;
4011;SDS011;2020;48.682;9.024;2022-07-05T12:07:03;1.37;;;1.27;;
4011;SDS011;2020;48.682;9.024;2022-07-05T12:09:30;1.57;;;1.20;;
4011;SDS011;2020;48.682;9.024;2022-07-05T12:12:19;1.70;;;1.60;;
4011;SDS011;2020;48.682;9.024;2022-07-05T12:15:04;0.90;;;0.90;;
4011;SDS011;2020;48.682;9.024;2022-07-05T12:17:30;1.67;;;1.00;;
4011;SDS011;2020;48.682;9.024;2022-07-05T12:19:59;3.47;;;2.10;;
4011;SDS011;2020;48.682;9.024;2022-07-05T12:22:31;1.03;;;1.03;;
4011;SDS011;2020;48.682;9.024;2022-07-05T12:24:58;0.93;;;0.93;;
4011;SDS011;2020;48.682;9.024;2022-07-05T12:27:27;1.07;;;1.00;;
4011;SDS011;2020;48.682;9.024;2022-07-05T12:29:54;1.50;;;1.50;;
4011;SDS011;2020;48.682;9.024;2022-07-05T12:32:20;3.60;;;1.30;;
4011;SDS011;2020;48.682;9.024;2022-07-05T12:34:45;1.37;;;0.97;;
4011;SDS011;2020;48.682;9.024;2022-07-05T12:37:19;2.70;;;1.10;;
4011;SDS011;2020;48.682;9.024;2022-07-05T12:39:46;1.63;;;1.30;;
4011;SDS011;2020;48.682;9.024;2022-07-05T12:42:28;1.57;;;1.10;;
4011;SDS011;2020;48.682;9.024;2022-07-05T12:45:09;1.10;;;1.10;;
4011;SDS011;2020;48.682;9.024;2022-07-05T12:47:51;1.40;;;1.30;;
4011;SDS011;2020;48.682;9.024;2022-07-05T12:50:18;1.10;;;1.10;;
4011;SDS011;2020;48.682;9.024;2022-07-05T12:55:58;1.50;;;1.50;;
4011;SDS011;2020;48.682;9.024;2022-07-05T12:58:44;1.30;;;1.30;;
4011;SDS011;2020;48.682;9.024;2022-07-05T13:01:27;1.20;;;1.20;;
4011;SDS011;2020;48.682;9.024;2022-07-05T13:04:00;1.50;;;1.40;;
4011;SDS011;2020;48.682;9.024;2022-07-05T13:09:09;1.60;;;1.60;;
4011;SDS011;2020;48.682;9.024;2022-07-05T13:11:35;1.17;;;1.10;;
4011;SDS011;2020;48.682;9.024;2022-07-05T13:14:00;1.50;;;1.00;;
4011;SDS011;2020;48.682;9.024;2022-07-05T13:16:25;1.53;;;1.37;;
4011;SDS011;2020;48.682;9.024;2022-07-05T13:18:51;1.40;;;1.23;;
4011;SDS011;2020;48.682;9.024;2022-07-05T13:21:16;1.60;;;1.50;;
4011;SDS011;2020;48.682;9.024;2022-07-05T13:23:41;1.80;;;1.13;;
4011;SDS011;2020;48.682;9.024;2022-07-05T13:26:07;1.40;;;1.40;;
4011;SDS011;2020;48.682;9.024;2022-07-05T13:28:32;1.57;;;1.50;;
4011;SDS011;2020;48.682;9.024;2022-07-05T13:30:57;1.83;;;1.00;;
4011;SDS011;2020;48.682;9.024;2022-07-05T13:33:23;4.70;;;2.23;;
4011;SDS011;2020;48.682;9.024;2022-07-05T13:35:48;1.10;;;1.10;;
4011;SDS011;2020;48.682;9.024;2022-07-05T13:38:14;1.73;;;1.10;;
4011;SDS011;2020;48.682;9.024;2022-07-05T13:40:39;1.53;;;1.43;;
4011;SDS011;2020;48.682;9.024;2022-07-05T13:43:04;1.37;;;1.27;;
4011;SDS011;2020;48.682;9.024;2022-07-05T13:45:30;1.57;;;1.47;;
4011;SDS011;2020;48.682;9.024;2022-07-05T13:47:55;1.30;;;1.20;;
4011;SDS011;2020;48.682;9.024;2022-07-05T13:50:21;1.33;;;1.23;;
4011;SDS011;2020;48.682;9.024;2022-07-05T13:52:58;2.00;;;1.73;;
4011;SDS011;2020;48.682;9.024;2022-07-05T13:55:24;1.43;;;1.37;;
4011;SDS011;2020;48.682;9.024;2022-07-05T13:57:50;1.53;;;1.33;;
4011;SDS011;2020;48.682;9.024;2022-07-05T14:00:15;1.17;;;1.17;;
4011;SDS011;2020;48.682;9.024;2022-07-05T14:02:41;1.83;;;1.63;;
4011;SDS011;2020;48.682;9.024;2022-07-05T14:05:06;5.73;;;1.70;;
4011;SDS011;2020;48.682;9.024;2022-07-05T14:07:32;1.40;;;1.27;;
4011;SDS011;2020;48.682;9.024;2022-07-05T14:09:57;2.60;;;1.60;;
4011;SDS011;2020;48.682;9.024;2022-07-05T14:12:23;1.93;;;1.60;;
4011;SDS011;2020;48.682;9.024;2022-07-05T14:14:48;1.50;;;1.40;;
4011;SDS011;2020;48.682;9.024;2022-07-05T14:17:13;1.50;;;1.40;;
4011;SDS011;2020;48.682;9.024;2022-07-05T14:19:38;1.40;;;1.40;;
4011;SDS011;2020;48.682;9.024;2022-07-05T14:22:04;1.40;;;1.40;;
4011;SDS011;2020;48.682;9.024;2022-07-05T14:24:29;4.20;;;1.37;;
4011;SDS011;2020;48.682;9.024;2022-07-05T14:26:54;1.37;;;1.37;;
4011;SDS011;2020;48.682;9.024;2022-07-05T14:29:20;1.30;;;1.30;;
4011;SDS011;2020;48.682;9.024;2022-07-05T14:31:45;1.83;;;1.57;;
4011;SDS011;2020;48.682;9.024;2022-07-05T14:34:10;1.60;;;1.47;;
4011;SDS011;2020;48.682;9.024;2022-07-05T14:36:35;1.50;;;1.37;;
4011;SDS011;2020;48.682;9.024;2022-07-05T14:39:01;1.83;;;1.43;;
4011;SDS011;2020;48.682;9.024;2022-07-05T14:41:26;1.40;;;1.30;;
4011;SDS011;2020;48.682;9.024;2022-07-05T14:43:53;2.60;;;1.57;;
4011;SDS011;2020;48.682;9.024;2022-07-05T14:46:19;2.30;;;1.20;;
4011;SDS011;2020;48.682;9.024;2022-07-05T14:48:45;1.57;;;1.47;;
4011;SDS011;2020;48.682;9.024;2022-07-05T14:51:10;2.93;;;1.33;;
4011;SDS011;2020;48.682;9.024;2022-07-05T14:53:35;1.43;;;1.43;;
4011;SDS011;2020;48.682;9.024;2022-07-05T14:56:01;1.37;;;1.37;;
4011;SDS011;2020;48.682;9.024;2022-07-05T14:58:26;1.40;;;1.30;;
4011;SDS011;2020;48.682;9.024;2022-07-05T15:00:56;1.57;;;1.57;;
4011;SDS011;2020;48.682;9.024;2022-07-05T15:03:22;1.83;;;1.63;;
4011;SDS011;2020;48.682;9.024;2022-07-05T15:05:48;2.20;;;1.80;;
4011;SDS011;2020;48.682;9.024;2022-07-05T15:08:14;1.27;;;1.00;;
4011;SDS011;2020;48.682;9.024;2022-07-05T15:10:39;2.33;;;1.60;;
4011;SDS011;2020;48.682;9.024;2022-07-05T15:13:04;1.23;;;1.23;;
4011;SDS011;2020;48.682;9.024;2022-07-05T15:15:31;1.53;;;1.43;;
4011;SDS011;2020;48.682;9.024;2022-07-05T15:17:56;1.77;;;1.67;;
4011;SDS011;2020;48.682;9.024;2022-07-05T15:20:22;2.03;;;1.97;;
4011;SDS011;2020;48.682;9.024;2022-07-05T15:22:48;1.67;;;1.03;;
4011;SDS011;2020;48.682;9.024;2022-07-05T15:25:13;1.70;;;1.60;;
4011;SDS011;2020;48.682;9.024;2022-07-05T15:27:38;1.50;;;1.40;;
4011;SDS011;2020;48.682;9.024;2022-07-05T15:30:04;1.60;;;1.60;;
4011;SDS011;2020;48.682;9.024;2022-07-05T15:32:29;1.20;;;1.20;;
4011;SDS011;2020;48.682;9.024;2022-07-05T15:34:55;2.30;;;1.63;;
4011;SDS011;2020;48.682;9.024;2022-07-05T15:37:20;1.37;;;1.37;;
4011;SDS011;2020;48.682;9.024;2022-07-05T15:39:45;2.20;;;1.20;;
4011;SDS011;2020;48.682;9.024;2022-07-05T15:42:11;1.37;;;1.27;;
4011;SDS011;2020;48.682;9.024;2022-07-05T15:44:36;7.83;;;1.30;;
4011;SDS011;2020;48.682;9.024;2022-07-05T15:47:01;1.40;;;1.30;;
4011;SDS011;2020;48.682;9.024;2022-07-05T15:49:34;1.10;;;1.10;;
4011;SDS011;2020;48.682;9.024;2022-07-05T15:51:59;1.33;;;1.33;;
4011;SDS011;2020;48.682;9.024;2022-07-05T15:54:25;1.00;;;1.00;;